Time;durP1;ratioP1;P1;durP2;ratioP2;P2;SDS_P1;SDS_P2;PMS_P1;PMS_P2;Temp;Humidity;BMP_temperature;BMP_pressure;BME280_temperature;BME280_humidity;BME280_pressure;Samples;Min_cycle;Max_cycle;Signal;HPM_P1;HPM_P2
2023/04/16 00:01:01;;;;;;;6.63;3.30;;;;;;;18.09;53.60;99887.41;5071578;28;20052;-70
2023/04/16 00:03:31;;;;;;;6.90;3.10;;;;;;;18.06;53.79;99890.41;5071607;28;20136;-70
2023/04/16 00:06:00;;;;;;;6.45;3.30;;;;;;;18.04;53.80;99892.38;5071329;28;20477;-71
2023/04/16 00:08:28;;;;;;;7.57;3.45;;;;;;;18.03;53.79;99887.97;5071480;28;20055;-71
2023/04/16 00:10:56;;;;;;;6.38;3.15;;;;;;;18.01;53.70;99879.19;5071430;28;20382;-71
2023/04/16 00:13:26;;;;;;;5.63;3.00;;;;;;;17.99;53.75;99886.59;5071655;28;20059;-71
2023/04/16 00:15:54;;;;;;;7.10;3.13;;;;;;;17.96;53.66;99885.03;5071601;28;20084;-70
2023/04/16 00:18:22;;;;;;;6.20;3.30;;;;;;;17.97;53.55;99888.59;5071484;28;20071;-70
2023/04/16 00:20:52;;;;;;;5.63;3.28;;;;;;;17.95;53.50;99890.56;5071477;28;20076;-70
2023/04/16 00:23:20;;;;;;;6.70;3.30;;;;;;;17.94;53.58;99886.16;5071200;28;20057;-70
2023/04/16 00:25:48;;;;;;;6.30;3.20;;;;;;;17.90;53.66;99888.31;5071256;28;20056;-70
2023/04/16 00:28:17;;;;;;;6.22;3.20;;;;;;;17.90;53.40;99891.03;5071337;28;20052;-72
2023/04/16 00:30:45;;;;;;;6.15;3.20;;;;;;;17.88;53.58;99890.31;5071197;28;20052;-72
2023/04/16 00:33:13;;;;;;;6.47;3.00;;;;;;;17.87;53.55;99893.19;5071299;28;20103;-71
2023/04/16 00:35:41;;;;;;;5.40;3.20;;;;;;;17.85;53.60;99895.16;5071174;28;20048;-70
2023/04/16 00:38:11;;;;;;;4.95;2.95;;;;;;;17.83;53.81;99899.84;5071147;28;20144;-70
2023/04/16 00:40:41;;;;;;;6.45;3.17;;;;;;;17.82;53.56;99887.34;5072099;28;20048;-72
2023/04/16 00:43:09;;;;;;;5.57;2.97;;;;;;;17.81;53.60;99904.53;5075211;28;20418;-71
2023/04/16 00:45:37;;;;;;;6.35;3.45;;;;;;;17.79;53.74;99895.75;5074915;28;20146;-72
2023/04/16 00:48:06;;;;;;;4.75;3.03;;;;;;;17.79;53.50;99893.06;5074886;28;20048;-72
2023/04/16 00:50:34;;;;;;;7.10;3.33;;;;;;;17.76;53.55;99886.13;5074721;28;20063;-71
2023/04/16 00:53:03;;;;;;;5.25;3.30;;;;;;;17.76;53.41;99890.63;5074974;28;20106;-71
2023/04/16 00:55:32;;;;;;;6.93;3.20;;;;;;;17.73;53.49;99889.94;5074798;28;20048;-71
2023/04/16 00:58:00;;;;;;;6.50;3.08;;;;;;;17.71;53.49;99888.38;5074699;28;20105;-72
2023/04/16 01:00:28;;;;;;;5.45;3.00;;;;;;;17.68;53.63;99884.13;5075130;28;20044;-72
2023/04/16 01:02:57;;;;;;;6.82;3.13;;;;;;;17.69;53.46;99893.06;5074620;28;20072;-69
2023/04/16 01:05:25;;;;;;;7.18;4.03;;;;;;;17.66;53.30;99885.22;5074526;28;20179;-70
2023/04/16 01:07:53;;;;;;;6.38;3.58;;;;;;;17.66;53.45;99887.94;5074673;28;20048;-71
2023/04/16 01:10:21;;;;;;;6.80;3.47;;;;;;;17.64;53.35;99898.88;5074626;28;20076;-72
2023/04/16 01:12:51;;;;;;;6.68;3.53;;;;;;;17.63;53.40;99899.88;5074560;28;20048;-70
2023/04/16 01:15:19;;;;;;;5.43;3.40;;;;;;;17.60;53.26;99902.03;5074345;28;20480;-70
2023/04/16 01:17:47;;;;;;;6.78;3.15;;;;;;;17.59;53.59;99901.16;5074294;28;20094;-71
2023/04/16 01:20:16;;;;;;;7.53;3.20;;;;;;;17.60;53.40;99902.03;5074436;28;20048;-71
2023/04/16 01:22:45;;;;;;;6.10;3.38;;;;;;;17.57;53.37;99897.78;5074262;28;20040;-70
2023/04/16 01:25:15;;;;;;;5.35;3.30;;;;;;;17.55;53.30;99898.91;5074320;28;20044;-70
2023/04/16 01:27:43;;;;;;;6.32;3.00;;;;;;;17.55;53.39;99904.28;5074152;28;20055;-70
2023/04/16 01:30:12;;;;;;;5.70;3.53;;;;;;;17.53;53.51;99898.19;5073975;28;20143;-70
2023/04/16 01:32:40;;;;;;;5.78;3.25;;;;;;;17.52;53.48;99897.34;5073970;28;20402;-70
2023/04/16 01:35:08;;;;;;;6.03;3.35;;;;;;;17.50;53.16;99902.03;5074205;28;20131;-70
2023/04/16 01:37:36;;;;;;;6.45;3.40;;;;;;;17.50;53.19;99910.13;5073985;28;20060;-70
2023/04/16 01:40:07;;;;;;;5.68;3.17;;;;;;;17.48;53.14;99904.03;5074052;28;20087;-71
2023/04/16 01:42:35;;;;;;;6.10;3.30;;;;;;;17.47;53.21;99905.03;5073903;28;20049;-70
2023/04/16 01:45:03;;;;;;;4.93;2.97;;;;;;;17.44;53.17;99897.22;5073778;28;20045;-72
2023/04/16 01:47:31;;;;;;;6.22;3.42;;;;;;;17.43;53.16;99904.47;5073912;28;20071;-70
2023/04/16 01:50:00;;;;;;;5.45;3.50;;;;;;;17.41;52.94;99908.31;5074124;28;20059;-70
2023/04/16 01:52:29;;;;;;;5.28;3.15;;;;;;;17.41;53.01;99903.75;5072876;28;20546;-70
2023/04/16 01:54:57;;;;;;;5.93;3.15;;;;;;;17.39;53.10;99905.75;5073727;28;20052;-70
2023/04/16 01:57:26;;;;;;;6.72;3.30;;;;;;;17.39;52.99;99904.91;5073635;28;20064;-70
2023/04/16 01:59:55;;;;;;;5.70;2.83;;;;;;;17.38;53.02;99903.22;5073733;28;20429;-70
2023/04/16 02:02:26;;;;;;;5.35;3.17;;;;;;;17.36;53.16;99894.38;5073681;28;20120;-71
2023/04/16 02:04:56;;;;;;;5.38;3.13;;;;;;;17.34;52.98;99899.06;5073584;28;20060;-70
2023/04/16 02:07:24;;;;;;;6.18;3.65;;;;;;;17.34;52.93;99901.78;5073460;28;20098;-70
2023/04/16 02:09:52;;;;;;;5.68;3.40;;;;;;;17.32;52.97;99906.47;5073286;28;20041;-70
2023/04/16 02:12:20;;;;;;;4.90;3.30;;;;;;;17.31;53.01;99912.84;5073509;28;20139;-70
2023/04/16 02:14:50;;;;;;;4.97;2.85;;;;;;;17.30;52.80;99916.53;5073476;28;20049;-70
2023/04/16 02:17:18;;;;;;;6.78;3.30;;;;;;;17.29;52.89;99909.47;5073368;28;20102;-70
2023/04/16 02:19:47;;;;;;;5.72;3.40;;;;;;;17.28;52.81;99923.94;5073298;28;20095;-70
2023/04/16 02:22:15;;;;;;;5.97;3.30;;;;;;;17.27;52.69;99916.81;5073265;28;20049;-70
2023/04/16 02:24:43;;;;;;;6.15;3.35;;;;;;;17.26;52.59;99923.19;5073026;28;20074;-70
2023/04/16 02:27:11;;;;;;;5.53;3.22;;;;;;;17.24;52.65;99917.09;5073154;28;20074;-71
2023/04/16 02:29:39;;;;;;;5.85;3.42;;;;;;;17.24;52.53;99919.81;5072948;28;20053;-71
2023/04/16 02:32:08;;;;;;;5.80;3.50;;;;;;;17.21;52.51;99917.41;5072912;28;20048;-70
2023/04/16 02:34:38;;;;;;;6.95;3.40;;;;;;;17.21;52.73;99917.41;5073105;28;20048;-70
2023/04/16 02:37:07;;;;;;;5.93;3.05;;;;;;;17.20;52.66;99915.72;5072825;28;20382;-70
2023/04/16 02:39:35;;;;;;;4.88;3.13;;;;;;;17.19;52.62;99924.78;5072661;28;20083;-70
2023/04/16 02:42:03;;;;;;;5.95;3.40;;;;;;;17.16;52.70;99924.06;5072947;28;20404;-70
2023/04/16 02:44:31;;;;;;;6.05;3.60;;;;;;;17.14;52.69;99917.97;5072555;28;20410;-70
2023/04/16 02:46:59;;;;;;;5.85;3.10;;;;;;;17.14;52.56;99923.34;5072821;28;20045;-70
2023/04/16 02:49:29;;;;;;;6.15;3.50;;;;;;;17.13;52.46;99918.97;5072575;28;20106;-70
2023/04/16 02:51:58;;;;;;;4.97;3.17;;;;;;;17.10;52.41;99913.88;5072444;28;20045;-70
2023/04/16 02:54:26;;;;;;;5.32;3.38;;;;;;;17.08;52.36;99905.06;5072441;28;20480;-70
2023/04/16 02:56:54;;;;;;;4.82;3.22;;;;;;;17.10;52.37;99908.47;5072296;28;20505;-69
2023/04/16 02:59:22;;;;;;;5.45;3.30;;;;;;;17.08;52.59;99909.59;5072471;28;20094;-70
2023/04/16 03:01:50;;;;;;;6.53;3.35;;;;;;;17.08;52.52;99913.16;5072391;28;20052;-70
2023/04/16 03:04:19;;;;;;;6.50;3.40;;;;;;;17.06;52.07;99914.28;5072168;28;20098;-70
2023/04/16 03:06:48;;;;;;;5.53;3.22;;;;;;;17.06;52.34;99919.66;5072124;28;20064;-70
2023/04/16 03:09:17;;;;;;;5.72;3.40;;;;;;;17.05;52.26;99921.50;5072284;28;20044;-70
2023/04/16 03:11:45;;;;;;;5.78;3.33;;;;;;;17.03;52.25;99923.50;5072290;28;20079;-70
2023/04/16 03:14:13;;;;;;;4.90;3.33;;;;;;;17.03;52.43;99920.81;5072175;28;20044;-70
2023/04/16 03:16:41;;;;;;;5.95;3.83;;;;;;;17.02;52.43;99931.72;5072094;28;20098;-71
2023/04/16 03:19:09;;;;;;;6.45;3.70;;;;;;;17.01;52.32;99932.72;5071844;28;20433;-70
2023/04/16 03:21:37;;;;;;;5.85;3.78;;;;;;;16.99;52.51;99935.56;5072216;28;20086;-70
2023/04/16 03:24:07;;;;;;;6.10;3.60;;;;;;;16.98;52.40;99924.91;5071900;28;20059;-71
2023/04/16 03:26:35;;;;;;;6.32;3.60;;;;;;;16.97;52.08;99932.13;5071897;28;20045;-70
2023/04/16 03:29:03;;;;;;;6.30;3.40;;;;;;;16.97;52.36;99944.75;5071750;28;20144;-70
2023/04/16 03:31:31;;;;;;;5.18;3.20;;;;;;;16.96;52.20;99945.75;5071680;28;20564;-71
2023/04/16 03:33:59;;;;;;;6.32;3.58;;;;;;;16.94;51.98;99951.28;5071848;28;20047;-71
2023/04/16 03:36:29;;;;;;;5.72;3.22;;;;;;;16.92;52.28;99964.06;5071785;28;20056;-70
2023/04/16 03:38:58;;;;;;;4.90;3.03;;;;;;;16.92;52.48;99971.28;5071951;28;20045;-70
2023/04/16 03:41:27;;;;;;;5.07;3.08;;;;;;;16.91;52.06;99975.81;5071798;28;20497;-70
2023/04/16 03:43:55;;;;;;;5.70;3.63;;;;;;;16.91;52.45;99986.59;5071767;28;20040;-70
2023/04/16 03:46:23;;;;;;;4.82;3.15;;;;;;;16.88;52.05;99984.16;5071620;28;20143;-70
2023/04/16 03:48:52;;;;;;;5.75;3.30;;;;;;;16.87;52.06;99982.47;5071804;28;20398;-70
2023/04/16 03:51:20;;;;;;;5.57;3.33;;;;;;;16.87;52.20;99980.63;5071624;28;20052;-70
2023/04/16 03:53:48;;;;;;;5.90;3.22;;;;;;;16.87;51.98;99985.16;5071670;28;20080;-70
2023/04/16 03:56:16;;;;;;;6.78;3.53;;;;;;;16.84;52.19;99983.59;5071704;28;20469;-70
2023/04/16 03:58:46;;;;;;;4.57;2.95;;;;;;;16.83;52.03;99986.44;5071521;28;20049;-70
2023/04/16 04:01:14;;;;;;;4.97;3.00;;;;;;;16.82;52.09;99988.28;5071832;28;20858;-70
2023/04/16 04:03:42;;;;;;;5.70;3.22;;;;;;;16.83;52.27;99989.13;5071616;28;20056;-71
2023/04/16 04:06:11;;;;;;;4.78;3.28;;;;;;;16.81;52.20;99991.13;5071636;28;20378;-71
2023/04/16 04:08:39;;;;;;;4.88;3.08;;;;;;;16.79;52.19;99988.56;5071456;28;20084;-71
2023/04/16 04:11:07;;;;;;;7.80;3.47;;;;;;;16.79;52.42;99990.38;5071478;28;20080;-71
2023/04/16 04:13:35;;;;;;;5.40;3.20;;;;;;;16.78;52.17;99984.13;5071402;28;20060;-71
2023/04/16 04:16:05;;;;;;;4.43;3.00;;;;;;;16.77;52.26;99978.91;5072979;28;20407;-71
2023/04/16 04:18:34;;;;;;;4.88;3.08;;;;;;;16.75;52.24;99992.50;5075536;28;20056;-71
2023/04/16 04:21:06;;;;;;;5.43;3.05;;;;;;;16.75;51.94;99981.72;5075420;28;20532;-71
2023/04/16 04:23:34;;;;;;;5.25;3.22;;;;;;;16.74;52.70;99993.50;5075333;28;20155;-71
2023/04/16 04:26:04;;;;;;;5.57;3.13;;;;;;;16.73;52.33;99993.63;5075225;28;20048;-71
2023/04/16 04:28:33;;;;;;;6.57;3.65;;;;;;;16.72;52.20;99998.19;5075411;28;20052;-71
2023/04/16 04:31:01;;;;;;;5.15;3.15;;;;;;;16.72;52.07;99997.31;5075491;28;20391;-71
2023/04/16 04:33:31;;;;;;;6.30;3.65;;;;;;;16.71;52.34;100009.94;5075342;28;20055;-71
2023/04/16 04:35:59;;;;;;;6.25;3.38;;;;;;;16.70;52.15;100010.94;5075318;28;20040;-71
2023/04/16 04:38:28;;;;;;;4.88;2.90;;;;;;;16.68;52.38;100012.00;5075045;28;20044;-70
2023/04/16 04:40:57;;;;;;;5.63;3.33;;;;;;;16.65;52.19;100010.44;5075401;28;20460;-71
2023/04/16 04:43:25;;;;;;;5.82;3.10;;;;;;;16.67;52.18;100016.53;5075075;28;20045;-71
2023/04/16 04:45:53;;;;;;;4.75;3.38;;;;;;;16.67;52.16;100010.31;5075026;28;20072;-70
2023/04/16 04:48:25;;;;;;;5.85;3.50;;;;;;;16.66;52.13;100012.16;5074814;28;20049;-71
2023/04/16 04:50:55;;;;;;;5.05;2.90;;;;;;;16.66;52.48;100014.84;5074759;28;20044;-70
2023/04/16 04:53:23;;;;;;;4.55;2.75;;;;;;;16.65;52.26;100018.53;5074756;28;20489;-70
2023/04/16 04:55:51;;;;;;;5.03;2.80;;;;;;;16.65;52.22;100020.38;5074846;28;20045;-70
2023/04/16 04:58:24;;;;;;;5.55;3.30;;;;;;;16.63;52.36;100015.13;5074822;28;20045;-71
2023/04/16 05:00:52;;;;;;;5.25;3.13;;;;;;;16.62;52.28;100023.34;5074601;28;20052;-71
2023/04/16 05:03:21;;;;;;;5.15;2.83;;;;;;;16.60;52.60;100027.03;5074650;28;20044;-70
2023/04/16 05:05:49;;;;;;;5.47;2.90;;;;;;;16.63;52.79;100030.44;5074461;28;20063;-71
2023/04/16 05:08:19;;;;;;;4.85;3.15;;;;;;;16.62;52.67;100028.72;5074738;28;20408;-70
2023/04/16 05:10:47;;;;;;;4.40;2.85;;;;;;;16.61;52.75;100030.56;5074447;28;20056;-70
2023/04/16 05:13:15;;;;;;;5.90;3.10;;;;;;;16.58;52.58;100028.97;5074542;28;20090;-70
2023/04/16 05:15:44;;;;;;;4.38;2.78;;;;;;;16.60;52.54;100026.19;5074177;28;20068;-71
2023/04/16 05:18:12;;;;;;;5.57;2.80;;;;;;;16.58;52.47;100023.59;5074302;28;20045;-70
2023/04/16 05:20:40;;;;;;;5.43;2.85;;;;;;;16.57;52.53;100019.19;5074319;28;20052;-71
2023/04/16 05:23:09;;;;;;;4.63;2.75;;;;;;;16.56;52.62;100017.50;5074434;28;20409;-70
2023/04/16 05:25:38;;;;;;;4.53;2.67;;;;;;;16.56;52.53;100019.34;5073127;28;20044;-70
2023/04/16 05:28:06;;;;;;;4.50;2.80;;;;;;;16.55;52.50;100023.03;5072922;28;20041;-70
2023/04/16 05:30:34;;;;;;;5.68;2.88;;;;;;;16.56;52.34;100024.72;5073877;28;20405;-70
2023/04/16 05:33:02;;;;;;;4.63;2.97;;;;;;;16.55;52.56;100031.94;5073755;28;20048;-70
2023/04/16 05:35:30;;;;;;;4.72;2.70;;;;;;;16.53;52.73;100039.31;5074122;28;20455;-71
2023/04/16 05:37:59;;;;;;;4.55;2.95;;;;;;;16.50;52.35;100042.28;5074292;28;20052;-71
2023/04/16 05:40:27;;;;;;;4.50;3.00;;;;;;;16.54;52.50;100053.63;5074197;28;20410;-72
2023/04/16 05:42:56;;;;;;;4.35;2.72;;;;;;;16.51;52.38;100046.69;5074059;28;20055;-70
2023/04/16 05:45:24;;;;;;;4.22;2.60;;;;;;;16.52;52.63;100059.16;5073638;28;20489;-71
2023/04/16 05:47:55;;;;;;;4.85;2.78;;;;;;;16.52;52.42;100053.78;5073734;28;20045;-70
2023/04/16 05:50:23;;;;;;;4.68;2.88;;;;;;;16.52;52.55;100058.31;5073935;28;20048;-71
2023/04/16 05:52:51;;;;;;;4.63;3.00;;;;;;;16.52;52.52;100061.84;5073807;28;20045;-71
2023/04/16 05:55:19;;;;;;;4.07;2.42;;;;;;;16.50;52.55;100068.34;5073654;28;20493;-71
2023/04/16 05:57:47;;;;;;;4.93;2.60;;;;;;;16.47;52.55;100069.47;5073529;28;20482;-71
2023/04/16 06:00:17;;;;;;;4.45;2.78;;;;;;;16.50;52.45;100074.59;5073512;28;20123;-71
2023/04/16 06:02:45;;;;;;;4.78;2.72;;;;;;;16.49;52.35;100067.47;5073837;28;20044;-71
2023/04/16 06:05:14;;;;;;;4.38;2.65;;;;;;;16.50;52.58;100068.34;5073498;28;20053;-71
2023/04/16 06:07:42;;;;;;;4.82;3.00;;;;;;;16.49;52.40;100063.94;5073627;28;20048;-70
2023/04/16 06:10:11;;;;;;;3.85;2.50;;;;;;;16.48;52.36;100065.78;5073264;28;20442;-70
2023/04/16 06:12:39;;;;;;;5.35;2.90;;;;;;;16.49;52.40;100072.88;5073038;28;20040;-71
2023/04/16 06:15:08;;;;;;;4.65;2.50;;;;;;;16.48;52.60;100060.38;5073426;28;20102;-71
2023/04/16 06:17:38;;;;;;;4.95;2.72;;;;;;;16.48;52.68;100065.78;5073322;28;20169;-71
2023/04/16 06:20:08;;;;;;;4.10;2.38;;;;;;;16.48;52.74;100067.63;5073583;28;20087;-71
2023/04/16 06:22:36;;;;;;;4.45;2.63;;;;;;;16.47;52.59;100064.06;5073242;28;20098;-71
2023/04/16 06:25:09;;;;;;;4.55;3.00;;;;;;;16.48;52.46;100060.38;5072989;28;20048;-71
2023/04/16 06:27:37;;;;;;;5.88;2.70;;;;;;;16.46;52.62;100059.69;5073216;28;20447;-71
2023/04/16 06:30:11;;;;;;;4.25;2.50;;;;;;;16.48;52.64;100071.16;5072729;28;20634;-70
2023/04/16 06:32:40;;;;;;;5.00;2.90;;;;;;;16.48;52.44;100060.38;5073102;28;20044;-71
2023/04/16 06:35:09;;;;;;;4.10;2.58;;;;;;;16.44;52.72;100056.28;5072984;28;20064;-70
2023/04/16 06:37:37;;;;;;;5.13;2.85;;;;;;;16.48;52.58;100060.38;5072118;28;20045;-71
2023/04/16 06:40:06;;;;;;;5.32;2.67;;;;;;;16.47;52.34;100058.69;5072740;28;20047;-72
2023/04/16 06:42:35;;;;;;;4.32;2.50;;;;;;;16.48;52.53;100052.31;5072933;28;20048;-71
2023/04/16 06:45:03;;;;;;;5.20;3.08;;;;;;;16.47;52.63;100053.31;5072861;28;20129;-71
2023/04/16 06:47:31;;;;;;;4.40;2.40;;;;;;;16.50;52.69;100065.63;5072794;28;20047;-71
2023/04/16 06:50:01;;;;;;;5.40;2.90;;;;;;;16.47;52.71;100056.00;5072600;28;20045;-69
2023/04/16 06:52:29;;;;;;;4.28;2.75;;;;;;;16.49;52.67;100056.72;5074690;28;20052;-73
2023/04/16 06:54:58;;;;;;;3.65;2.50;;;;;;;16.50;52.60;100058.44;5071966;28;20106;-71
2023/04/16 06:57:26;;;;;;;4.40;2.53;;;;;;;16.49;52.52;100056.72;5072143;28;20052;-70
2023/04/16 06:59:54;;;;;;;3.97;2.47;;;;;;;16.52;52.43;100061.00;5072358;28;20048;-71
2023/04/16 07:02:24;;;;;;;7.20;2.80;;;;;;;16.50;52.46;100062.94;5072524;28;20488;-71
2023/04/16 07:04:52;;;;;;;3.88;2.45;;;;;;;16.53;52.64;100066.25;5072110;28;20075;-70
2023/04/16 07:07:22;;;;;;;4.22;2.63;;;;;;;16.52;52.66;100067.22;5072351;28;20055;-71
2023/04/16 07:09:50;;;;;;;4.70;2.70;;;;;;;16.54;52.75;100072.47;5072411;28;20397;-71
2023/04/16 07:12:20;;;;;;;5.15;3.08;;;;;;;16.55;52.71;100071.50;5072379;28;20053;-73
2023/04/16 07:14:49;;;;;;;4.43;2.42;;;;;;;16.53;52.72;100066.25;5072492;28;20087;-72
2023/04/16 07:17:17;;;;;;;4.72;2.70;;;;;;;16.54;53.05;100059.88;5072104;28;20048;-72
2023/04/16 07:19:46;;;;;;;4.80;2.80;;;;;;;16.56;52.98;100063.28;5072026;28;20474;-72
2023/04/16 07:22:14;;;;;;;5.80;2.90;;;;;;;16.59;53.12;100064.84;5072175;28;20114;-72
2023/04/16 07:24:44;;;;;;;5.90;2.80;;;;;;;16.58;53.02;100071.22;5072222;28;20055;-72
2023/04/16 07:27:12;;;;;;;4.38;2.67;;;;;;;16.59;53.22;100073.75;5072107;28;20055;-72
2023/04/16 07:29:40;;;;;;;4.35;2.33;;;;;;;16.59;53.23;100065.69;5071920;28;20048;-72
2023/04/16 07:32:09;;;;;;;4.88;2.42;;;;;;;16.61;53.15;100068.25;5071859;28;20052;-71
2023/04/16 07:34:37;;;;;;;4.82;2.80;;;;;;;16.60;52.93;100066.56;5071794;28;20045;-73
2023/04/16 07:37:05;;;;;;;5.25;2.70;;;;;;;16.63;52.81;100068.13;5072045;28;20094;-72
2023/04/16 07:39:34;;;;;;;5.35;2.58;;;;;;;16.63;53.31;100065.44;5071942;28;20083;-71
2023/04/16 07:42:03;;;;;;;4.95;2.45;;;;;;;16.64;53.03;100070.69;5071903;28;20052;-71
2023/04/16 07:44:31;;;;;;;5.45;3.10;;;;;;;16.65;52.94;100066.16;5071633;28;20068;-72
2023/04/16 07:46:59;;;;;;;9.13;3.08;;;;;;;16.65;52.95;100066.16;5072034;28;20159;-72
2023/04/16 07:49:29;;;;;;;5.07;2.38;;;;;;;16.66;53.11;100057.94;5071737;28;20067;-72
2023/04/16 07:51:58;;;;;;;5.90;2.45;;;;;;;16.67;52.95;100069.53;5070964;28;20048;-71
2023/04/16 07:54:26;;;;;;;6.50;2.55;;;;;;;16.68;52.93;100065.88;5071687;28;20565;-72
2023/04/16 07:56:56;;;;;;;5.45;2.33;;;;;;;16.68;53.05;100066.75;5088994;28;20050;-72
2023/04/16 07:59:25;;;;;;;4.75;2.35;;;;;;;16.70;53.12;100063.94;5091632;28;20044;-70
2023/04/16 08:01:54;;;;;;;7.93;2.40;;;;;;;16.71;53.22;100071.03;5091695;28;20048;-71
2023/04/16 08:04:24;;;;;;;8.25;2.78;;;;;;;16.71;53.08;100065.66;5091643;28;20059;-71
2023/04/16 08:06:53;;;;;;;9.05;2.67;;;;;;;16.72;53.17;100067.34;5091427;28;20404;-71
2023/04/16 08:09:23;;;;;;;5.43;2.47;;;;;;;16.72;53.34;100065.50;5091705;28;20055;-72
2023/04/16 08:11:51;;;;;;;8.65;2.80;;;;;;;16.74;53.47;100065.38;5091451;28;20417;-73
2023/04/16 08:14:20;;;;;;;5.00;2.53;;;;;;;16.75;53.39;100065.22;5091447;28;20481;-71
2023/04/16 08:16:49;;;;;;;7.45;2.72;;;;;;;16.77;53.51;100062.38;5091758;28;20429;-71
2023/04/16 08:19:18;;;;;;;6.97;2.50;;;;;;;16.77;53.56;100062.38;5091577;28;20595;-71
2023/04/16 08:21:46;;;;;;;6.53;2.20;;;;;;;16.78;53.35;100062.25;5090457;28;20040;-72
2023/04/16 08:24:14;;;;;;;9.02;2.60;;;;;;;16.79;53.61;100063.97;5070566;28;20083;-71
2023/04/16 08:26:43;;;;;;;7.18;2.85;;;;;;;16.80;53.44;100070.22;5071238;28;20076;-73
2023/04/16 08:29:11;;;;;;;6.63;2.50;;;;;;;16.80;53.61;100065.69;5070371;28;20056;-72
2023/04/16 08:31:40;;;;;;;7.78;2.60;;;;;;;16.78;53.69;100066.78;5071379;28;20080;-73
2023/04/16 08:34:11;;;;;;;5.82;2.50;;;;;;;16.81;53.72;100074.63;5071065;28;20044;-70
2023/04/16 08:36:40;;;;;;;6.65;2.30;;;;;;;16.84;53.81;100083.25;5070899;28;20041;-70
2023/04/16 08:39:08;;;;;;;8.20;2.63;;;;;;;16.85;54.23;100078.72;5067201;28;20045;-72
2023/04/16 08:41:40;;;;;;;7.13;2.70;;;;;;;16.85;54.00;100073.34;5070797;28;20131;-71
2023/04/16 08:44:13;;;;;;;9.38;2.53;;;;;;;16.85;54.24;100078.72;5071173;28;20040;-70
2023/04/16 08:46:43;;;;;;;10.23;2.70;;;;;;;16.87;54.12;100087.50;5068756;28;20063;-70
2023/04/16 08:49:16;;;;;;;10.07;2.80;;;;;;;16.90;54.17;100087.25;5071154;28;20099;-69
2023/04/16 08:51:51;;;;;;;9.27;3.10;;;;;;;16.92;54.36;100084.44;5071187;28;20056;-72
2023/04/16 08:54:31;;;;;;;11.55;2.95;;;;;;;16.92;54.44;100081.72;5070744;28;20044;-70
2023/04/16 08:57:00;;;;;;;6.15;2.80;;;;;;;16.95;54.55;100093.06;5070614;28;20048;-74
2023/04/16 08:59:29;;;;;;;10.02;2.83;;;;;;;16.94;54.56;100083.28;5069606;28;20091;-73
2023/04/16 09:01:58;;;;;;;6.72;2.83;;;;;;;16.96;54.69;100086.69;5071578;28;20044;-74
2023/04/16 09:04:29;;;;;;;10.43;3.00;;;;;;;16.97;54.62;100093.78;5074545;28;20090;-67
2023/04/16 09:06:59;;;;;;;11.57;2.65;;;;;;;17.01;54.71;100094.38;5074469;28;20080;-68
2023/04/16 09:09:28;;;;;;;9.35;3.00;;;;;;;17.00;54.56;100093.53;5074669;28;20049;-74
2023/04/16 09:11:57;;;;;;;14.13;3.00;;;;;;;17.01;54.80;100095.25;5074548;28;20139;-73
2023/04/16 09:14:25;;;;;;;13.30;2.97;;;;;;;17.04;54.87;100100.34;5074328;28;20133;-73
2023/04/16 09:16:54;;;;;;;6.55;2.45;;;;;;;17.04;54.95;100094.94;5074740;28;20056;-74
2023/04/16 09:19:23;;;;;;;8.13;2.70;;;;;;;17.08;55.18;100100.91;5074744;28;20055;-78
2023/04/16 09:21:52;;;;;;;11.63;3.03;;;;;;;17.10;55.41;100102.50;5074717;28;20044;-70
2023/04/16 09:24:21;;;;;;;8.05;2.80;;;;;;;17.12;55.48;100113.97;5074921;28;20102;-75
2023/04/16 09:26:51;;;;;;;15.05;2.90;;;;;;;17.14;55.56;100106.59;5074688;28;20140;-76
2023/04/16 09:29:34;;;;;;;7.18;2.80;;;;;;;17.17;55.61;100105.47;5074380;28;20055;-74
2023/04/16 09:32:03;;;;;;;;;;;;;;;17.19;56.02;100108.91;5074763;28;20048;-76
2023/04/16 09:34:33;;;;;;;9.70;2.83;;;;;;;17.25;56.03;100104.78;5074591;28;19927;-75
2023/04/16 09:37:18;;;;;;;8.55;2.90;;;;;;;17.38;56.04;100110.78;5074340;28;20086;-80
2023/04/16 09:39:53;;;;;;;11.93;2.92;;;;;;;17.52;55.95;100110.38;5074189;28;20059;-77
2023/04/16 09:42:24;;;;;;;7.75;2.72;;;;;;;17.66;55.83;100112.69;5074348;28;20049;-77
2023/04/16 09:44:52;;;;;;;7.72;2.95;;;;;;;17.78;55.69;100115.25;5074151;28;20135;-76
2023/04/16 09:47:21;;;;;;;10.70;2.50;;;;;;;17.91;55.61;100115.81;5074151;28;20060;-76
2023/04/16 09:49:49;;;;;;;8.48;2.63;;;;;;;18.02;55.40;100118.38;5073920;28;20055;-74
2023/04/16 09:52:22;;;;;;;6.95;2.53;;;;;;;18.17;55.22;100116.94;5074038;28;20056;-75
2023/04/16 09:54:52;;;;;;;6.32;2.30;;;;;;;18.27;54.90;100115.09;5074199;28;20139;-77
2023/04/16 09:57:21;;;;;;;9.13;2.83;;;;;;;18.40;55.10;100111.22;5074330;28;20123;-75
2023/04/16 09:59:52;;;;;;;6.32;2.50;;;;;;;18.51;54.73;100114.59;5074251;28;20186;-81
2023/04/16 10:02:22;;;;;;;11.18;2.75;;;;;;;18.64;54.58;100113.44;5073826;28;20045;-76
2023/04/16 10:04:51;;;;;;;7.18;2.20;;;;;;;18.74;54.42;100100.78;5073957;28;20131;-77
2023/04/16 10:07:21;;;;;;;8.10;2.30;;;;;;;18.85;54.10;100100.56;5074485;28;20109;-78
2023/04/16 10:09:51;;;;;;;9.20;2.50;;;;;;;19.00;53.98;100103.63;5073934;28;20408;-78
2023/04/16 10:12:20;;;;;;;6.07;2.42;;;;;;;19.15;53.90;100108.38;5073677;28;20421;-70
2023/04/16 10:14:48;;;;;;;7.20;2.65;;;;;;;19.28;53.28;100102.63;5073284;28;20045;-77
2023/04/16 10:17:17;;;;;;;7.22;2.50;;;;;;;19.42;53.15;100098.56;5073569;28;20045;-78
2023/04/16 10:19:46;;;;;;;8.68;2.42;;;;;;;19.54;53.32;100094.63;5073857;28;20051;-79
2023/04/16 10:22:15;;;;;;;7.03;2.30;;;;;;;19.65;53.15;100097.13;5073806;28;20059;-79
2023/04/16 10:24:47;;;;;;;7.35;2.50;;;;;;;19.75;52.72;100094.34;5074124;28;20044;-79
2023/04/16 10:27:15;;;;;;;5.43;2.53;;;;;;;19.85;52.56;100089.69;5073768;28;20044;-78
2023/04/16 10:29:44;;;;;;;6.78;2.00;;;;;;;19.93;52.84;100089.78;5073128;28;20053;-74
2023/04/16 10:32:14;;;;;;;5.90;2.50;;;;;;;19.97;52.62;100084.88;5073446;28;20048;-77
2023/04/16 10:34:42;;;;;;;7.40;2.33;;;;;;;20.00;52.40;100085.44;5072126;28;20044;-72
2023/04/16 10:37:10;;;;;;;6.05;2.33;;;;;;;20.04;52.65;100087.81;5068402;28;20465;-79
2023/04/16 10:39:38;;;;;;;12.38;2.50;;;;;;;20.05;52.19;100081.41;5071455;28;20429;-75
2023/04/16 10:42:09;;;;;;;9.07;2.20;;;;;;;20.04;52.42;100080.56;5072084;28;20440;-74
2023/04/16 10:44:39;;;;;;;6.32;2.35;;;;;;;20.04;52.43;100075.13;5072053;28;20047;-71
2023/04/16 10:47:12;;;;;;;4.82;1.95;;;;;;;20.04;52.62;100066.16;5066657;28;20465;-72
2023/04/16 10:49:42;;;;;;;6.28;2.03;;;;;;;20.04;53.03;100066.16;5072658;28;20048;-75
2023/04/16 10:52:11;;;;;;;6.15;1.98;;;;;;;20.03;52.85;100062.63;5072666;28;20401;-74
2023/04/16 10:54:40;;;;;;;6.75;2.30;;;;;;;20.05;53.39;100067.88;5072863;28;20091;-72
2023/04/16 10:57:16;;;;;;;5.80;2.30;;;;;;;20.07;53.22;100057.72;5072502;28;20048;-72
2023/04/16 10:59:45;;;;;;;4.38;1.98;;;;;;;20.08;54.19;100063.00;5072639;28;20048;-73
2023/04/16 11:02:15;;;;;;;4.07;2.10;;;;;;;20.11;54.54;100061.84;5072555;28;20071;-76
2023/04/16 11:04:44;;;;;;;5.07;2.20;;;;;;;20.13;55.04;100062.50;5072797;28;20045;-77
2023/04/16 11:07:16;;;;;;;7.00;2.55;;;;;;;20.14;55.33;100056.09;5072244;28;20063;-79
2023/04/16 11:09:56;;;;;;;8.70;2.53;;;;;;;20.14;55.37;100053.38;5072360;28;20135;-77
2023/04/16 11:12:32;;;;;;;4.63;2.20;;;;;;;20.19;54.99;100057.31;5072656;28;20044;-76
2023/04/16 11:15:02;;;;;;;6.47;2.50;;;;;;;20.19;55.25;100053.78;5071480;28;20485;-71
2023/04/16 11:17:33;;;;;;;7.50;2.28;;;;;;;20.21;54.92;100051.75;5072176;28;20049;-71
2023/04/16 11:20:01;;;;;;;6.45;2.17;;;;;;;20.22;54.61;100053.44;5072055;28;20052;-79
2023/04/16 11:22:30;;;;;;;3.55;1.90;;;;;;;20.23;54.56;100058.69;5071770;28;20052;-73
2023/04/16 11:24:58;;;;;;;7.13;2.00;;;;;;;20.23;54.46;100050.56;5071164;28;20067;-77
2023/04/16 11:27:29;;;;;;;5.90;2.10;;;;;;;20.24;53.94;100051.41;5071144;28;20123;-77
2023/04/16 11:29:59;;;;;;;5.28;2.05;;;;;;;20.25;54.31;100050.41;5071920;28;20064;-71
2023/04/16 11:32:28;;;;;;;4.72;2.08;;;;;;;20.23;53.96;100055.97;5071306;28;20045;-74
2023/04/16 11:34:56;;;;;;;4.13;1.98;;;;;;;20.21;54.22;100043.63;5072217;28;20049;-71
2023/04/16 11:37:32;;;;;;;5.00;1.95;;;;;;;20.23;54.30;100044.31;5072161;28;20136;-71